Private Wetterstation Nrnberg - Katzwang
Wetterdaten: Dezember 2014
Datum Temp. A. Feuchte A. Luftdruck Regen Wind Richtung Taupunkt Windchill Windben
01.12.2014 2,5 C 85 % 1005 hPa 0,5 l/m 7,6 km/h NO 0,2 C 1,4 C 8,6 km/h
02.12.2014 2,5 C 86 % 1008 hPa 1,0 l/m 0,0 km/h N-NO 0,4 C 2,5 C 1,0 km/h
03.12.2014 2,3 C 87 % 1014 hPa 0,5 l/m 0,3 km/h N-NO 0,3 C 2,3 C 1,4 km/h
04.12.2014 3,9 C 87 % 1011 hPa 0,0 l/m 1,4 km/h N-NO 2,0 C 3,9 C 2,4 km/h
05.12.2014 3,2 C 87 % 1015 hPa 0,5 l/m 0,0 km/h N-NO 1,2 C 3,2 C 1,0 km/h
06.12.2014 3,4 C 86 % 1018 hPa 0,0 l/m 0,0 km/h N 1,3 C 3,4 C 1,0 km/h
07.12.2014 3,1 C 85 % 1018 hPa 0,0 l/m 0,0 km/h W-NW 0,8 C 3,1 C 1,0 km/h
08.12.2014 1,0 C 86 % 1016 hPa 1,6 l/m 0,0 km/h W-NW -1,0 C 1,0 C 1,0 km/h
09.12.2014 -1,9 C 87 % 1025 hPa 0,0 l/m 2,0 km/h O-NO -3,7 C -1,9 C 3,0 km/h
10.12.2014 1,6 C 87 % 1018 hPa 0,5 l/m 3,4 km/h NO -0,4 C 0,9 C 7,2 km/h
11.12.2014 4,6 C 84 % 1011 hPa 5,7 l/m 5,5 km/h W-NW 2,2 C 2,9 C 6,5 km/h
12.12.2014 5,9 C 81 % 1005 hPa 0,0 l/m 6,8 km/h N 2,9 C 5,6 C 7,8 km/h
13.12.2014 7,7 C 77 % 1009 hPa 0,0 l/m 3,6 km/h N 3,9 C 7,4 C 4,6 km/h
14.12.2014 7,3 C 87 % 1013 hPa 1,6 l/m 1,0 km/h N-NO 5,2 C 7,3 C 2,0 km/h
15.12.2014 5,2 C 86 % 1013 hPa 0,0 l/m 1,4 km/h W-NW 3,0 C 5,2 C 2,4 km/h
16.12.2014 4,3 C 87 % 1010 hPa 0,5 l/m 5,4 km/h W-NW 2,3 C 2,5 C 6,4 km/h
17.12.2014 3,6 C 87 % 1008 hPa 4,7 l/m 9,4 km/h W-NW 1,5 C 0,2 C 10,4 km/h
18.12.2014 9,8 C 87 % 1012 hPa 1,6 l/m 4,8 km/h W-NW 7,7 C 9,7 C 5,8 km/h
19.12.2014 9,3 C 82 % 1014 hPa 5,2 l/m 8,9 km/h W-NW 6,4 C 7,5 C 9,9 km/h
20.12.2014 4,5 C 82 % 1019 hPa 1,6 l/m 13,2 km/h W-NW 1,7 C -0,6 C 25,5 km/h
21.12.2014 4,8 C 81 % 1026 hPa 0,0 l/m 8,4 km/h W-NW 1,7 C 2,7 C 9,4 km/h
22.12.2014 7,3 C 80 % 1021 hPa 0,0 l/m 8,1 km/h W-NW 4,1 C 6,1 C 9,1 km/h
23.12.2014 5,2 C 83 % 1019 hPa 0,0 l/m 6,2 km/h W-NW 2,4 C 3,3 C 7,2 km/h
24.12.2014 6,8 C 78 % 1017 hPa 0,0 l/m 7,3 km/h W-NW 3,2 C 4,8 C 11,6 km/h
25.12.2014 4,0 C 81 % 1021 hPa 2,6 l/m 2,4 km/h W-NW 1,0 C 3,3 C 3,4 km/h
26.12.2014 -0,1 C 84 % 1023 hPa 0,0 l/m 0,0 km/h W-NW -2,5 C -0,1 C 1,0 km/h
27.12.2014 -1,7 C 85 % 1000 hPa 0,0 l/m 13,4 km/h O -3,8 C -7,8 C 14,4 km/h
28.12.2014 -6,0 C 75 % 1018 hPa 0,0 l/m 3,4 km/h N-NO -9,7 C -6,7 C 4,4 km/h
29.12.2014 -4,0 C 84 % 1027 hPa 0,0 l/m 0,0 km/h W-NW -6,2 C -4,0 C 1,0 km/h
30.12.2014 -0,4 C 86 % 1029 hPa 0,0 l/m 3,1 km/h N -2,4 C -0,4 C 4,1 km/h
31.12.2014 0,8 C 86 % 1031 hPa 0,0 l/m 0,0 km/h W-NW -1,2 C 0,8 C 1,0 km/h
Min-Datum 28.12.14 13.12.14 27.12.14 14 Tage 01.12.14 - 28.12.14 27.12.14 01.12.14
Min-Zeit 21:30 12:20 15:00 - 00:40 - 21:30 09:50 00:40
Minimum -8,9 C 62 % 997 hPa - 0,0 km/h - -12,2 C -16,2 C 1,0 km/h
Max-Datum 13.12.14 02.12.14 29.12.14 11.12.14 20.12.14 - 18.12.14 13.12.14 18.12.14
Max-Zeit 12:20 06:30 23:50 07:40 20:30 - 22:40 12:20 22:50
Maximum 12,4 C 88 % 1032 hPa 5,7 l/m 37,6 km/h
W-NW
- 9,5 C 12,4 C 70,1 km/h
W-NW
Durchschnitt 3,2 C 84 % 1016 hPa #28,0 l/m 4,1 km/h W-NW 0,8 C 2,2 C 5,7 km/h

Durchschnitt Minimum Temp.0,7 C
Durchschnitt Maximum Temp.5,3 C